Terminal Aerodrome Forecast
Issued by NWS

Home | Current Version | Previous Version | Graphics & Text | Print | Product List | Glossary On
Versions: 1 2 3 4 5 6 7 8 9 10 11 12 13 14 15 16 17 18 19
883
FTUS43 KBIS 221130
TAFJMS
TAF
KJMS 221130Z 2212/2312 16006KT P6SM SKC
     FM222100 16007KT P6SM BKN080
     FM222300 13006KT P6SM OVC030
     FM230100 11005KT 3SM -SN BR OVC020
     FM230200 09004KT 1 1/2SM -SN BR OVC010
     FM230800 01005KT 4SM -SN BR OVC015=

USA.gov is the U.S. government's official web portal to all federal, state and local government web resources and services.